メインページ
METAR-TAF:

METAR-TAF

空港 :

テルアビブ / ベン・グリオン, イスラエル

ベン・グリオン国際空港

緯度: 32-00N, 経度: 034-54E, 海抜: 40m

現時点の気象観測

当レポートは31分前の11:20(UTC)に作成
西の風 11kt、西/南西から北西の間で変化する
気温 26°C
湿度 39%
気圧 1016 hPa
視程10km以上
高度4500ftの雲はほとんどない

METAR: LLBG 241120Z 28011KT 240V320 9999 FEW045 26/11 Q1016 NOSIG

時間: 14:51 (11:51 UTC)

予報

当レポートは47分前の11:04(UTC)に作成
予報は24日の 12時(UTC)から 25日の 12時(UTC)まで有効
西/北西の風 10kt
視程10km以上
1,500メートル以下は雲なし、積乱雲なし
24日の 15時(UTC)から 24日の 18時(UTC)まで徐々に
の風 5kt
24日の 22時(UTC)から 24日の 24時(UTC)まで徐々に
南東の風 4kt
視程10km以上
高度2000ftの雲はほとんどない
確率 30%
25日の 00時(UTC)から 25日の 05時(UTC)まで
高度1800ftの雲は散在している
25日の 07時(UTC)から 25日の 09時(UTC)まで徐々に
西/北西の風 10kt
視程10km以上
1,500メートル以下は雲なし、積乱雲なし

TAF: LLBG 241104Z 2412/2512 29010KT CAVOK BECMG 2415/2418 36005KT BECMG 2422/2424 14004KT 9999 FEW020 PROB30 2500/2505 SCT018 BECMG 2507/2509 29010KT CAVOK TX26/2412Z TN15/2503Z

4,000以上の空港の気象観測と天気予報(METAR報とTAF報)

利用可能な観測所は地図上に黄色い丸と赤い丸で示す。

丸の上にカーソルを重ねると観測所名を参照できる。

次にクリックすると気象観測と天気予報を参照できる。

マップの切り替え:黒色「×」印の緑ボタンをクリックして拡大、「-」印の緑ボタンをクリックして縮小、緑色の三角印をクリックして隣りの地図に切り替え


METAR-TAF: